Time;durP1;ratioP1;P1;durP2;ratioP2;P2;SDS_P1;SDS_P2;PMS_P1;PMS_P2;Temp;Humidity;BMP_temperature;BMP_pressure;BME280_temperature;BME280_humidity;BME280_pressure;Samples;Min_cycle;Max_cycle;Signal;HPM_P1;HPM_P2
2023/03/04 00:00:23;;;;;;;4.78;4.47;;;2.30;99.90;;;;;;5041467;28;20205;-60
2023/03/04 00:02:50;;;;;;;4.67;4.37;;;2.30;99.90;;;;;;5052636;28;20223;-61
2023/03/04 00:05:17;;;;;;;5.03;4.63;;;2.30;99.90;;;;;;5054501;28;20206;-61
2023/03/04 00:07:45;;;;;;;4.90;4.60;;;2.30;99.90;;;;;;5050439;28;20787;-61
2023/03/04 00:10:12;;;;;;;5.17;4.83;;;2.30;99.90;;;;;;5058517;28;20353;-61
2023/03/04 00:12:39;;;;;;;4.90;4.60;;;2.30;99.90;;;;;;5050332;28;20220;-61
2023/03/04 00:15:06;;;;;;;4.35;4.05;;;2.20;99.90;;;;;;5050066;28;20207;-60
2023/03/04 00:17:33;;;;;;;4.53;4.22;;;2.30;99.90;;;;;;5050829;28;20242;-61
2023/03/04 00:20:00;;;;;;;5.07;4.70;;;2.30;99.90;;;;;;5050596;28;20299;-62
2023/03/04 00:22:27;;;;;;;4.50;4.20;;;2.30;99.90;;;;;;5050697;28;20322;-61
2023/03/04 00:24:55;;;;;;;4.60;4.25;;;2.30;99.90;;;;;;5050085;28;20207;-61
2023/03/04 00:27:22;;;;;;;4.60;4.30;;;2.30;99.90;;;;;;5050969;28;20588;-60
2023/03/04 00:29:48;;;;;;;4.70;4.40;;;2.30;99.90;;;;;;5050540;28;20208;-63
2023/03/04 00:32:17;;;;;;;4.77;4.47;;;2.30;99.90;;;;;;5050466;28;20241;-62
2023/03/04 00:34:43;;;;;;;4.93;4.60;;;2.30;99.90;;;;;;5050110;28;20254;-61
2023/03/04 00:37:10;;;;;;;4.90;4.60;;;2.30;99.90;;;;;;5050379;28;20315;-62
2023/03/04 00:39:37;;;;;;;4.87;4.57;;;2.20;99.90;;;;;;5050435;28;20210;-60
2023/03/04 00:42:05;;;;;;;4.68;4.38;;;2.20;99.90;;;;;;5049725;28;20224;-61
2023/03/04 00:44:33;;;;;;;5.40;5.00;;;2.20;99.90;;;;;;5049666;28;20230;-60
2023/03/04 00:46:59;;;;;;;4.68;4.38;;;2.10;99.90;;;;;;5050166;28;20204;-61
2023/03/04 00:49:26;;;;;;;4.90;4.60;;;2.00;99.90;;;;;;5050051;28;20215;-61
2023/03/04 00:51:53;;;;;;;5.10;4.80;;;2.00;99.90;;;;;;5049807;28;20227;-61
2023/03/04 00:54:20;;;;;;;5.00;4.70;;;1.90;99.90;;;;;;5049736;28;20226;-63
2023/03/04 00:56:47;;;;;;;4.95;4.65;;;1.90;99.90;;;;;;5050538;28;20586;-60
2023/03/04 00:59:15;;;;;;;4.83;4.43;;;1.90;99.90;;;;;;5050495;28;20294;-61
2023/03/04 01:01:42;;;;;;;4.23;3.97;;;1.90;99.90;;;;;;5049983;28;20710;-61
2023/03/04 01:04:09;;;;;;;4.78;4.47;;;1.90;99.90;;;;;;5050540;28;20207;-63
2023/03/04 01:06:35;;;;;;;4.65;4.35;;;1.90;99.90;;;;;;5050804;28;20200;-61
2023/03/04 01:09:02;;;;;;;4.70;4.40;;;1.90;99.90;;;;;;5051749;28;20204;-62
2023/03/04 01:11:29;;;;;;;4.47;4.17;;;1.80;99.90;;;;;;5051431;28;20608;-61
2023/03/04 01:13:56;;;;;;;4.80;4.50;;;1.80;99.90;;;;;;5049389;28;20302;-59
2023/03/04 01:16:24;;;;;;;4.60;4.30;;;1.80;99.90;;;;;;5049953;28;20210;-62
2023/03/04 01:18:51;;;;;;;5.37;4.97;;;1.70;99.90;;;;;;5050117;28;20572;-61
2023/03/04 01:21:18;;;;;;;4.43;4.13;;;1.70;99.90;;;;;;5049816;28;20204;-60
2023/03/04 01:23:44;;;;;;;4.75;4.45;;;1.70;99.90;;;;;;5050102;28;20218;-62
2023/03/04 01:26:11;;;;;;;4.93;4.63;;;1.60;99.90;;;;;;5050182;28;20683;-60
2023/03/04 01:28:38;;;;;;;4.78;4.38;;;1.60;99.90;;;;;;5051062;28;20200;-60
2023/03/04 01:31:05;;;;;;;4.50;4.20;;;1.60;99.90;;;;;;5050744;28;20632;-61
2023/03/04 01:33:34;;;;;;;4.88;4.57;;;1.60;99.90;;;;;;5050499;28;20338;-61
2023/03/04 01:36:00;;;;;;;4.78;4.47;;;1.50;99.90;;;;;;5050157;28;20310;-61
2023/03/04 01:38:28;;;;;;;5.15;4.75;;;1.60;99.90;;;;;;5050233;28;20227;-61
2023/03/04 01:40:55;;;;;;;4.40;4.10;;;1.60;99.90;;;;;;5050585;28;20269;-62
2023/03/04 01:43:24;;;;;;;4.73;4.43;;;1.60;99.90;;;;;;5050736;28;20228;-61
2023/03/04 01:45:52;;;;;;;4.53;4.15;;;1.60;99.90;;;;;;5053922;28;20223;-63
2023/03/04 01:48:25;;;;;;;4.40;4.10;;;1.60;99.90;;;;;;5055292;28;20315;-62
2023/03/04 01:50:53;;;;;;;4.50;4.20;;;1.70;99.90;;;;;;5054691;28;20204;-62
2023/03/04 01:53:22;;;;;;;4.20;4.00;;;1.70;99.90;;;;;;5055343;28;20224;-62
2023/03/04 01:55:49;;;;;;;4.40;4.10;;;1.70;99.90;;;;;;5055858;28;20231;-61
2023/03/04 01:58:16;;;;;;;4.30;4.00;;;1.70;99.90;;;;;;5066131;28;20234;-60
2023/03/04 02:00:43;;;;;;;4.63;4.22;;;1.70;99.90;;;;;;5066439;28;20200;-61
2023/03/04 02:03:14;;;;;;;5.10;4.80;;;1.70;99.90;;;;;;5066871;28;20231;-62
2023/03/04 02:05:44;;;;;;;4.10;3.90;;;1.70;99.90;;;;;;5066785;28;20282;-59
2023/03/04 02:08:13;;;;;;;4.57;4.28;;;1.70;99.90;;;;;;5068069;28;20601;-61
2023/03/04 02:10:42;;;;;;;4.50;4.20;;;1.70;99.90;;;;;;5060951;28;20219;-62
2023/03/04 02:13:10;;;;;;;4.75;4.45;;;1.70;99.90;;;;;;5057310;28;20314;-62
2023/03/04 02:15:37;;;;;;;4.88;4.57;;;1.70;99.90;;;;;;5058932;28;20203;-60
2023/03/04 02:18:13;;;;;;;4.75;4.38;;;1.70;99.90;;;;;;5060754;28;20224;-63
2023/03/04 02:20:47;;;;;;;4.60;4.30;;;1.70;99.90;;;;;;5055637;28;20208;-60
2023/03/04 02:23:21;;;;;;;4.25;3.97;;;1.70;99.90;;;;;;5053908;28;20224;-62
2023/03/04 02:25:52;;;;;;;4.05;3.85;;;1.70;99.90;;;;;;5053570;28;20207;-62
2023/03/04 02:28:21;;;;;;;4.20;3.90;;;1.70;99.90;;;;;;5049683;28;20204;-60
2023/03/04 02:30:48;;;;;;;4.40;4.10;;;1.70;99.90;;;;;;5053710;28;20203;-63
2023/03/04 02:33:18;;;;;;;4.68;4.38;;;1.70;99.90;;;;;;5053095;28;20246;-62
2023/03/04 02:35:45;;;;;;;4.20;4.00;;;1.70;99.90;;;;;;5052360;28;20189;-64
2023/03/04 02:38:12;;;;;;;4.93;4.53;;;1.70;99.90;;;;;;5054109;28;20232;-61
2023/03/04 02:40:41;;;;;;;4.43;4.13;;;1.70;99.90;;;;;;5054187;28;20208;-60
2023/03/04 02:43:10;;;;;;;4.07;3.87;;;1.70;99.90;;;;;;5054160;28;20232;-61
2023/03/04 02:45:42;;;;;;;4.55;4.25;;;1.60;99.90;;;;;;5053892;28;20204;-61
2023/03/04 02:48:10;;;;;;;5.13;4.72;;;1.60;99.90;;;;;;5054158;28;20185;-62
2023/03/04 02:50:40;;;;;;;4.68;4.38;;;1.50;99.90;;;;;;5053886;28;20204;-62
2023/03/04 02:53:07;;;;;;;4.45;4.15;;;1.50;99.90;;;;;;5052972;28;20785;-62
2023/03/04 02:55:34;;;;;;;4.77;4.47;;;1.50;99.90;;;;;;5052261;28;20200;-61
2023/03/04 02:58:01;;;;;;;5.13;4.83;;;1.50;99.90;;;;;;5052271;28;20250;-62
2023/03/04 03:00:28;;;;;;;4.68;4.38;;;1.40;99.90;;;;;;5052432;28;20212;-61
2023/03/04 03:02:56;;;;;;;5.18;4.88;;;1.40;99.90;;;;;;5052762;28;20334;-61
2023/03/04 03:05:25;;;;;;;5.17;4.87;;;1.30;99.90;;;;;;5051596;28;20766;-63
2023/03/04 03:07:52;;;;;;;5.40;5.00;;;1.30;99.90;;;;;;5052365;28;20285;-63
2023/03/04 03:10:19;;;;;;;4.90;4.60;;;1.20;99.90;;;;;;5052385;28;20307;-64
2023/03/04 03:12:46;;;;;;;4.97;4.67;;;1.20;99.90;;;;;;5051873;28;20323;-60
2023/03/04 03:15:13;;;;;;;4.85;4.55;;;1.10;99.90;;;;;;5052007;28;20204;-62
2023/03/04 03:17:40;;;;;;;5.13;4.73;;;1.10;99.90;;;;;;5052332;28;20222;-63
2023/03/04 03:20:11;;;;;;;4.80;4.50;;;1.10;99.90;;;;;;5052076;28;20204;-62
2023/03/04 03:22:38;;;;;;;4.90;4.60;;;1.10;99.90;;;;;;5051861;28;20594;-62
2023/03/04 03:25:06;;;;;;;5.45;5.05;;;1.00;99.90;;;;;;5051220;28;20733;-66
2023/03/04 03:27:33;;;;;;;4.80;4.50;;;1.00;99.90;;;;;;5052177;28;20516;-62
2023/03/04 03:30:00;;;;;;;5.20;4.80;;;1.00;99.90;;;;;;5052264;28;20204;-63
2023/03/04 03:32:27;;;;;;;4.85;4.55;;;1.00;99.90;;;;;;5055952;28;20220;-62
2023/03/04 03:34:53;;;;;;;6.00;5.50;;;0.90;99.90;;;;;;5052914;28;20204;-60
2023/03/04 03:37:22;;;;;;;4.80;4.50;;;0.90;99.90;;;;;;5052315;28;20230;-60
2023/03/04 03:39:49;;;;;;;5.03;4.73;;;0.90;99.90;;;;;;5050910;28;20562;-63
2023/03/04 03:42:15;;;;;;;5.23;4.93;;;0.90;99.90;;;;;;5052262;28;20310;-61
2023/03/04 03:44:42;;;;;;;4.63;4.33;;;0.90;99.90;;;;;;5051058;28;20203;-61
2023/03/04 03:47:09;;;;;;;5.40;5.00;;;0.90;99.90;;;;;;5052080;28;20813;-62
2023/03/04 03:49:36;;;;;;;5.30;5.00;;;0.80;99.90;;;;;;5053597;28;20296;-61
2023/03/04 03:52:03;;;;;;;4.60;4.30;;;0.80;99.90;;;;;;5056557;28;20231;-63
2023/03/04 03:54:31;;;;;;;5.30;4.90;;;0.80;99.90;;;;;;5051096;28;20204;-60
2023/03/04 03:56:58;;;;;;;5.30;4.93;;;0.80;99.90;;;;;;5051663;28;20209;-60
2023/03/04 03:59:24;;;;;;;5.18;4.85;;;0.80;99.90;;;;;;5051170;28;20228;-62
2023/03/04 04:01:51;;;;;;;5.07;4.78;;;0.80;99.90;;;;;;5050557;28;20226;-61
2023/03/04 04:04:18;;;;;;;5.45;5.03;;;0.70;99.90;;;;;;5050406;28;20200;-63
2023/03/04 04:06:45;;;;;;;4.85;4.55;;;0.70;99.90;;;;;;5050828;28;20253;-63
2023/03/04 04:09:12;;;;;;;4.45;4.15;;;0.80;99.90;;;;;;5051620;28;20204;-62
2023/03/04 04:11:40;;;;;;;4.05;3.85;;;0.80;99.90;;;;;;5051902;28;20216;-62
2023/03/04 04:14:07;;;;;;;5.38;5.00;;;0.80;99.90;;;;;;5053552;28;20206;-62
2023/03/04 04:16:33;;;;;;;4.70;4.40;;;0.90;99.90;;;;;;5057862;28;20291;-61
2023/03/04 04:19:00;;;;;;;4.63;4.38;;;0.90;99.90;;;;;;5058061;28;20230;-61
2023/03/04 04:21:27;;;;;;;4.93;4.53;;;0.90;99.90;;;;;;5053724;28;20204;-61
2023/03/04 04:23:54;;;;;;;4.72;4.40;;;1.00;99.90;;;;;;5051425;28;20210;-63
2023/03/04 04:26:21;;;;;;;4.47;4.18;;;0.90;99.90;;;;;;5050646;28;20694;-62
2023/03/04 04:28:49;;;;;;;5.03;4.72;;;1.00;99.90;;;;;;5050638;28;20200;-63
2023/03/04 04:31:16;;;;;;;4.93;4.57;;;1.00;99.90;;;;;;5050384;28;20212;-63
2023/03/04 04:33:43;;;;;;;4.07;3.78;;;1.10;99.90;;;;;;5050664;28;20255;-63
2023/03/04 04:36:14;;;;;;;3.92;3.72;;;1.10;99.90;;;;;;5049477;28;20303;-63
2023/03/04 04:38:40;;;;;;;4.23;3.93;;;1.20;99.90;;;;;;5050319;28;20228;-61
2023/03/04 04:41:19;;;;;;;4.60;4.20;;;1.20;99.90;;;;;;5050129;28;20206;-61
2023/03/04 04:43:45;;;;;;;3.90;3.70;;;1.20;99.90;;;;;;5050741;28;20192;-61
2023/03/04 04:46:14;;;;;;;4.00;3.80;;;1.30;99.90;;;;;;5050039;28;20302;-62
2023/03/04 04:48:41;;;;;;;4.70;4.40;;;1.30;99.90;;;;;;5050468;28;20214;-63
2023/03/04 04:51:08;;;;;;;5.00;4.70;;;1.30;99.90;;;;;;5050095;28;20212;-60
2023/03/04 04:53:35;;;;;;;4.47;4.17;;;1.20;99.90;;;;;;5050067;28;20296;-63
2023/03/04 04:56:09;;;;;;;4.50;4.20;;;1.30;99.90;;;;;;5049612;28;20842;-62
2023/03/04 04:58:36;;;;;;;4.13;3.93;;;1.20;99.90;;;;;;5050282;28;20243;-61
2023/03/04 05:01:03;;;;;;;4.20;3.90;;;1.20;99.90;;;;;;5050114;28;20208;-61
2023/03/04 05:03:32;;;;;;;4.10;3.90;;;1.30;99.90;;;;;;5050310;28;20223;-63
2023/03/04 05:05:59;;;;;;;4.72;4.43;;;1.40;99.90;;;;;;5049473;28;20750;-63
2023/03/04 05:08:26;;;;;;;4.45;4.25;;;1.40;99.90;;;;;;5050212;28;20210;-60
2023/03/04 05:10:52;;;;;;;3.90;3.70;;;1.40;99.90;;;;;;5049890;28;20342;-62
2023/03/04 05:13:19;;;;;;;5.00;4.70;;;1.40;99.90;;;;;;5050092;28;20228;-63
2023/03/04 05:15:46;;;;;;;5.00;4.70;;;1.40;99.90;;;;;;5049645;28;20210;-62
2023/03/04 05:18:13;;;;;;;4.50;4.20;;;1.30;99.90;;;;;;5050157;28;20727;-63
2023/03/04 05:20:41;;;;;;;4.78;4.47;;;1.20;99.90;;;;;;5054198;28;20213;-61
2023/03/04 05:23:08;;;;;;;5.30;4.90;;;1.30;99.90;;;;;;5054572;28;20234;-60
2023/03/04 05:25:35;;;;;;;4.85;4.55;;;1.20;99.90;;;;;;5056970;28;20210;-63
2023/03/04 05:28:03;;;;;;;4.88;4.57;;;1.20;99.90;;;;;;5054199;28;20236;-63
2023/03/04 05:30:30;;;;;;;4.80;4.50;;;1.20;99.90;;;;;;5053970;28;20200;-63
2023/03/04 05:32:57;;;;;;;4.57;4.27;;;1.00;99.90;;;;;;5053804;28;20238;-62
2023/03/04 05:35:24;;;;;;;4.30;4.00;;;1.00;99.90;;;;;;5053443;28;20199;-64
2023/03/04 05:37:52;;;;;;;4.47;4.18;;;1.00;99.90;;;;;;5053959;28;20581;-64
2023/03/04 05:40:19;;;;;;;4.70;4.40;;;1.00;99.90;;;;;;5055122;28;20208;-64
2023/03/04 05:42:46;;;;;;;5.07;4.78;;;0.90;99.90;;;;;;5059427;28;20277;-63
2023/03/04 05:45:13;;;;;;;4.50;4.20;;;1.00;99.90;;;;;;5058764;28;20213;-63
2023/03/04 05:47:39;;;;;;;4.78;4.47;;;0.90;99.90;;;;;;5059366;28;20698;-65
2023/03/04 05:50:07;;;;;;;5.23;4.93;;;0.90;99.90;;;;;;5059716;28;20214;-66
2023/03/04 05:52:34;;;;;;;5.20;4.90;;;0.80;99.90;;;;;;5054495;28;20227;-63
2023/03/04 05:55:02;;;;;;;4.93;4.63;;;0.70;99.90;;;;;;5055961;28;20214;-65
2023/03/04 05:57:29;;;;;;;5.22;4.82;;;0.70;99.90;;;;;;5056469;28;20214;-64
2023/03/04 05:59:56;;;;;;;5.70;5.30;;;0.60;99.90;;;;;;5053823;28;20218;-64
2023/03/04 06:02:23;;;;;;;5.40;5.10;;;0.60;99.90;;;;;;5033308;28;20221;-65
2023/03/04 06:04:49;;;;;;;4.97;4.70;;;0.60;99.90;;;;;;5032824;28;20208;-63
2023/03/04 06:07:16;;;;;;;5.67;5.27;;;0.60;99.90;;;;;;5033359;28;20212;-64
2023/03/04 06:09:44;;;;;;;5.05;4.75;;;0.60;99.90;;;;;;5033353;28;20201;-63
2023/03/04 06:12:12;;;;;;;5.17;4.83;;;0.60;99.90;;;;;;5031916;28;20247;-64
2023/03/04 06:14:39;;;;;;;5.20;4.90;;;0.70;99.90;;;;;;5032013;28;20205;-65
2023/03/04 06:17:05;;;;;;;5.27;4.97;;;0.70;99.90;;;;;;5032097;28;20721;-63
2023/03/04 06:19:32;;;;;;;5.97;5.57;;;0.60;99.90;;;;;;5032371;28;20235;-64
2023/03/04 06:21:59;;;;;;;5.95;5.55;;;0.60;99.90;;;;;;5032163;28;20235;-63
2023/03/04 06:24:27;;;;;;;5.90;5.50;;;0.60;99.90;;;;;;5031456;28;20217;-66
2023/03/04 06:26:54;;;;;;;5.05;4.75;;;0.70;99.90;;;;;;5032331;28;20207;-65
2023/03/04 06:29:22;;;;;;;5.15;4.85;;;0.70;99.90;;;;;;5031621;28;20644;-66
2023/03/04 06:31:49;;;;;;;5.30;5.00;;;0.60;99.90;;;;;;5031508;28;20231;-65
2023/03/04 06:34:16;;;;;;;5.20;4.90;;;0.70;99.90;;;;;;5030948;28;20219;-64
2023/03/04 06:36:43;;;;;;;4.88;4.57;;;0.80;99.90;;;;;;5031841;28;20215;-64
2023/03/04 06:39:10;;;;;;;5.00;4.67;;;0.90;99.90;;;;;;5031492;28;20232;-65
2023/03/04 06:41:38;;;;;;;4.60;4.40;;;0.90;99.90;;;;;;5031586;28;20214;-64
2023/03/04 06:44:05;;;;;;;4.80;4.40;;;0.90;99.90;;;;;;5031184;28;20212;-66
2023/03/04 06:46:35;;;;;;;5.05;4.75;;;1.00;99.90;;;;;;5031680;28;20345;-65
2023/03/04 06:49:02;;;;;;;4.93;4.63;;;1.00;99.90;;;;;;5031419;28;20781;-64
2023/03/04 06:51:29;;;;;;;5.13;4.78;;;1.10;99.90;;;;;;5031480;28;20218;-65
2023/03/04 06:53:56;;;;;;;4.70;4.40;;;1.10;99.90;;;;;;5031150;28;20688;-62
2023/03/04 06:56:23;;;;;;;5.37;5.07;;;1.20;99.90;;;;;;5031680;28;20207;-65
2023/03/04 06:58:50;;;;;;;5.57;5.18;;;1.20;99.90;;;;;;5038839;28;20297;-63
2023/03/04 07:01:19;;;;;;;5.60;5.27;;;1.20;99.90;;;;;;5033893;28;20209;-63
2023/03/04 07:03:49;;;;;;;5.53;5.13;;;1.20;99.90;;;;;;5030857;28;20350;-64
2023/03/04 07:06:18;;;;;;;5.23;4.93;;;1.20;99.90;;;;;;5031049;28;20212;-64
2023/03/04 07:08:46;;;;;;;4.90;4.60;;;1.30;99.90;;;;;;5030832;28;20735;-64
2023/03/04 07:11:14;;;;;;;5.20;4.85;;;1.30;99.90;;;;;;4992437;28;1108049;-65
2023/03/04 07:13:41;;;;;;;5.50;5.10;;;1.30;99.90;;;;;;5032279;28;20252;-64
2023/03/04 07:16:09;;;;;;;5.63;5.23;;;1.20;99.90;;;;;;5031830;28;20211;-63
2023/03/04 07:18:36;;;;;;;5.70;5.30;;;1.10;99.90;;;;;;5032376;28;20231;-64
2023/03/04 07:21:06;;;;;;;5.90;5.50;;;1.10;99.90;;;;;;5032338;28;20213;-63
2023/03/04 07:23:34;;;;;;;6.47;5.90;;;1.10;99.90;;;;;;5032398;28;20228;-65
2023/03/04 07:26:01;;;;;;;6.00;5.60;;;1.10;99.90;;;;;;5031708;28;20209;-63
2023/03/04 07:28:28;;;;;;;5.60;5.20;;;1.00;99.90;;;;;;5033787;28;20213;-63
2023/03/04 07:30:54;;;;;;;5.70;5.30;;;1.00;99.90;;;;;;5032151;28;20689;-66
2023/03/04 07:33:21;;;;;;;6.18;5.78;;;1.10;99.90;;;;;;5031824;28;20228;-63
2023/03/04 07:35:48;;;;;;;6.55;6.00;;;1.20;99.90;;;;;;5031244;28;20723;-65
2023/03/04 07:38:16;;;;;;;5.78;5.38;;;1.30;99.90;;;;;;5031716;28;20295;-64
2023/03/04 07:40:43;;;;;;;5.70;5.30;;;1.40;99.90;;;;;;5031383;28;20267;-64
2023/03/04 07:43:12;;;;;;;5.63;5.23;;;1.50;99.90;;;;;;5031477;28;20786;-62
2023/03/04 07:45:39;;;;;;;6.07;5.67;;;1.60;99.90;;;;;;5031201;28;20235;-63
2023/03/04 07:48:06;;;;;;;5.90;5.50;;;1.70;99.90;;;;;;5031923;28;20273;-65
2023/03/04 07:50:32;;;;;;;5.82;5.43;;;1.80;99.90;;;;;;5031771;28;20209;-63
2023/03/04 07:52:59;;;;;;;5.70;5.30;;;1.90;99.90;;;;;;5031717;28;20224;-63
2023/03/04 07:55:29;;;;;;;5.57;5.17;;;2.10;99.90;;;;;;5030999;28;20666;-63
2023/03/04 07:57:56;;;;;;;6.20;5.80;;;2.20;99.90;;;;;;5031624;28;20770;-62
2023/03/04 08:00:23;;;;;;;6.27;5.80;;;2.40;99.90;;;;;;5031229;28;20695;-64
2023/03/04 08:02:50;;;;;;;5.63;5.23;;;2.40;99.90;;;;;;5031355;28;20336;-64
2023/03/04 08:05:17;;;;;;;5.65;5.25;;;2.50;99.90;;;;;;5030755;28;20236;-64
2023/03/04 08:07:44;;;;;;;5.70;5.30;;;2.50;99.90;;;;;;5031158;28;20205;-63
2023/03/04 08:10:11;;;;;;;5.90;5.50;;;2.40;99.90;;;;;;5031155;28;20207;-63
2023/03/04 08:12:40;;;;;;;6.00;5.60;;;2.30;99.90;;;;;;5031422;28;20229;-63
2023/03/04 08:15:08;;;;;;;6.23;5.83;;;2.30;99.90;;;;;;5031407;28;20577;-63
2023/03/04 08:17:35;;;;;;;6.53;6.13;;;2.30;99.90;;;;;;5036935;28;20618;-64
2023/03/04 08:20:02;;;;;;;5.80;5.40;;;2.50;99.90;;;;;;5035823;28;20304;-63
2023/03/04 08:22:29;;;;;;;5.90;5.50;;;2.60;99.90;;;;;;5033786;28;20325;-63
2023/03/04 08:24:56;;;;;;;5.90;5.50;;;2.70;99.90;;;;;;5044197;28;20272;-64
2023/03/04 08:27:22;;;;;;;6.10;5.70;;;2.80;99.90;;;;;;5044969;28;20200;-63
2023/03/04 08:29:50;;;;;;;7.33;6.73;;;2.90;99.90;;;;;;5039496;28;20291;-62
2023/03/04 08:32:17;;;;;;;6.90;6.40;;;2.90;99.90;;;;;;5050081;28;20233;-63
2023/03/04 08:34:44;;;;;;;6.83;6.33;;;2.90;99.90;;;;;;5048776;28;20207;-63
2023/03/04 08:37:11;;;;;;;6.68;6.25;;;2.80;99.90;;;;;;5050353;28;20200;-63
2023/03/04 08:39:38;;;;;;;7.15;6.65;;;2.90;99.90;;;;;;5030899;28;20593;-64
2023/03/04 08:42:05;;;;;;;6.75;6.35;;;2.90;99.90;;;;;;5030880;28;20314;-64
2023/03/04 08:44:31;;;;;;;7.03;6.53;;;3.00;99.90;;;;;;5029599;28;20589;-63
2023/03/04 08:47:00;;;;;;;8.38;7.78;;;3.00;99.90;;;;;;5030511;28;20209;-64
2023/03/04 08:49:26;;;;;;;7.40;6.90;;;2.90;99.90;;;;;;5031213;28;20562;-64
2023/03/04 08:51:53;;;;;;;8.37;7.77;;;3.00;99.90;;;;;;5032040;28;20224;-65
2023/03/04 08:54:20;;;;;;;8.13;7.63;;;3.00;99.90;;;;;;5054624;28;20214;-63
2023/03/04 08:56:47;;;;;;;8.23;7.63;;;3.00;99.90;;;;;;5068004;28;20276;-66
2023/03/04 08:59:13;;;;;;;7.90;7.30;;;3.00;99.90;;;;;;5069177;28;20288;-64
2023/03/04 09:01:41;;;;;;;8.30;7.70;;;2.80;99.90;;;;;;5066219;28;20761;-63
2023/03/04 09:04:10;;;;;;;7.93;7.43;;;2.80;99.90;;;;;;5063509;28;20271;-62
2023/03/04 09:06:36;;;;;;;8.10;7.50;;;2.80;99.90;;;;;;5058517;28;20208;-65
2023/03/04 09:09:04;;;;;;;8.47;7.87;;;2.90;99.90;;;;;;5052122;28;20204;-64
2023/03/04 09:11:31;;;;;;;8.33;7.73;;;2.80;99.90;;;;;;5051803;28;20234;-64
2023/03/04 09:13:58;;;;;;;7.97;7.37;;;2.70;99.90;;;;;;5049291;28;20674;-63
2023/03/04 09:16:25;;;;;;;7.83;7.33;;;3.10;99.90;;;;;;5049557;28;20297;-64
2023/03/04 09:18:52;;;;;;;7.47;6.97;;;3.40;99.90;;;;;;5049725;28;20533;-65
2023/03/04 09:21:20;;;;;;;7.43;6.93;;;3.60;99.90;;;;;;5049399;28;20208;-63
2023/03/04 09:23:47;;;;;;;6.83;6.33;;;3.60;99.90;;;;;;5049482;28;20220;-63
2023/03/04 09:26:16;;;;;;;7.27;6.77;;;3.80;99.90;;;;;;5049538;28;20206;-64
2023/03/04 09:28:43;;;;;;;6.93;6.43;;;4.00;99.90;;;;;;5046685;28;20207;-63
2023/03/04 09:31:14;;;;;;;7.87;7.27;;;4.20;99.90;;;;;;5047749;28;20295;-63
2023/03/04 09:33:42;;;;;;;7.20;6.70;;;4.30;99.90;;;;;;5029521;28;20232;-65
2023/03/04 09:36:09;;;;;;;6.28;5.88;;;4.30;99.90;;;;;;5028891;28;20205;-64
2023/03/04 09:38:39;;;;;;;6.53;6.03;;;4.50;99.90;;;;;;5029491;28;20292;-63
2023/03/04 09:41:09;;;;;;;6.43;6.03;;;4.80;99.90;;;;;;5029666;28;20570;-65
2023/03/04 09:43:38;;;;;;;6.28;5.88;;;5.00;99.90;;;;;;5029588;28;20520;-64
2023/03/04 09:46:09;;;;;;;6.30;5.80;;;5.20;99.90;;;;;;5029187;28;20219;-63
2023/03/04 09:48:43;;;;;;;5.65;5.25;;;5.40;99.90;;;;;;5034729;28;20204;-64
2023/03/04 09:51:21;;;;;;;6.07;5.67;;;5.70;99.90;;;;;;5048819;28;20203;-64
2023/03/04 09:53:58;;;;;;;5.90;5.50;;;6.10;99.90;;;;;;5040819;28;20232;-61
2023/03/04 09:56:27;;;;;;;5.53;5.13;;;6.20;99.90;;;;;;5042691;28;20203;-62
2023/03/04 09:59:02;;;;;;;5.20;4.90;;;6.10;99.90;;;;;;5049235;28;20208;-63
2023/03/04 10:01:34;;;;;;;5.27;4.87;;;6.20;99.90;;;;;;5050816;28;20203;-62
2023/03/04 10:04:06;;;;;;;5.10;4.80;;;6.40;99.90;;;;;;5041266;28;20208;-63
2023/03/04 10:06:34;;;;;;;5.43;5.13;;;6.40;99.90;;;;;;5053531;28;20247;-63
2023/03/04 10:09:06;;;;;;;5.10;4.80;;;6.00;99.90;;;;;;5051747;28;20208;-62
2023/03/04 10:11:39;;;;;;;5.10;4.80;;;5.90;99.90;;;;;;5050420;28;20741;-63
2023/03/04 10:14:25;;;;;;;5.30;5.00;;;6.00;99.90;;;;;;5036447;28;20200;-64
2023/03/04 10:16:56;;;;;;;5.13;4.83;;;6.10;99.90;;;;;;5052380;28;20207;-64
2023/03/04 10:19:32;;;;;;;4.73;4.43;;;6.10;99.90;;;;;;5038205;28;20200;-63
2023/03/04 10:21:59;;;;;;;4.90;4.60;;;6.30;99.90;;;;;;5046638;28;20223;-64
2023/03/04 10:24:30;;;;;;;4.70;4.40;;;6.20;99.90;;;;;;5059823;28;20218;-64
2023/03/04 10:27:03;;;;;;;5.13;4.83;;;6.00;99.90;;;;;;5052568;28;20215;-64
2023/03/04 10:29:32;;;;;;;5.30;5.00;;;5.80;99.90;;;;;;5052185;28;20200;-64
2023/03/04 10:31:59;;;;;;;5.50;5.13;;;5.90;99.90;;;;;;5051760;28;20231;-64
2023/03/04 10:34:26;;;;;;;5.35;4.95;;;6.10;99.90;;;;;;5051939;28;20215;-63
2023/03/04 10:37:00;;;;;;;5.33;4.93;;;6.10;99.90;;;;;;5053560;28;20287;-63
2023/03/04 10:39:31;;;;;;;4.70;4.40;;;6.00;99.90;;;;;;5054106;28;20580;-64
2023/03/04 10:42:01;;;;;;;4.90;4.60;;;6.20;99.90;;;;;;5051784;28;20285;-62
2023/03/04 10:44:29;;;;;;;4.80;4.50;;;6.20;99.90;;;;;;5050838;28;20258;-63
2023/03/04 10:46:58;;;;;;;5.30;4.90;;;6.30;99.90;;;;;;5051644;28;20204;-64
2023/03/04 10:49:27;;;;;;;4.77;4.47;;;6.60;99.90;;;;;;5039601;28;20205;-63
2023/03/04 10:52:01;;;;;;;5.57;5.23;;;6.80;99.90;;;;;;5043680;28;20302;-64
2023/03/04 10:54:33;;;;;;;5.43;5.13;;;6.80;99.90;;;;;;5051004;28;20219;-64
2023/03/04 10:57:02;;;;;;;5.93;5.53;;;6.80;99.90;;;;;;5052116;28;20196;-63
2023/03/04 10:59:39;;;;;;;5.65;5.35;;;6.90;99.90;;;;;;5052340;28;20282;-63
2023/03/04 11:02:16;;;;;;;5.70;5.40;;;7.00;99.90;;;;;;5057174;28;20227;-63
2023/03/04 11:04:48;;;;;;;4.90;4.60;;;7.10;99.90;;;;;;5056384;28;20215;-63
2023/03/04 11:07:16;;;;;;;5.17;4.87;;;7.10;99.90;;;;;;5056877;28;20210;-64
2023/03/04 11:09:45;;;;;;;5.97;5.57;;;7.20;99.90;;;;;;5051377;28;20196;-65
2023/03/04 11:12:14;;;;;;;5.05;4.75;;;7.20;99.90;;;;;;5046904;28;20276;-64
2023/03/04 11:14:45;;;;;;;5.80;5.40;;;7.00;99.90;;;;;;5051027;28;20208;-63
2023/03/04 11:17:24;;;;;;;5.93;5.53;;;7.10;99.90;;;;;;5050362;28;20227;-63
2023/03/04 11:19:57;;;;;;;7.00;6.50;;;7.30;99.90;;;;;;5050504;28;20234;-64
2023/03/04 11:22:29;;;;;;;7.37;6.87;;;7.40;99.90;;;;;;5048257;28;20339;-64
2023/03/04 11:25:10;;;;;;;7.30;6.80;;;7.30;99.90;;;;;;5044411;28;20303;-63
2023/03/04 11:27:44;;;;;;;6.90;6.50;;;7.30;99.90;;;;;;5049755;28;20262;-63
2023/03/04 11:30:29;;;;;;;6.90;6.50;;;7.50;99.90;;;;;;5051497;28;20305;-63
2023/03/04 11:33:03;;;;;;;7.17;6.67;;;7.50;99.90;;;;;;5044458;28;20266;-63
2023/03/04 11:35:35;;;;;;;6.50;6.10;;;7.50;99.90;;;;;;5048914;28;20206;-64
2023/03/04 11:38:09;;;;;;;6.53;6.13;;;7.60;99.90;;;;;;5049095;28;20196;-66
2023/03/04 11:40:43;;;;;;;6.87;6.37;;;7.70;99.90;;;;;;5054633;28;20207;-63
2023/03/04 11:43:16;;;;;;;6.90;6.43;;;7.60;99.90;;;;;;5061460;28;20233;-65
2023/03/04 11:46:12;;;;;;;7.43;6.93;;;7.60;99.90;;;;;;5061046;28;20299;-64
2023/03/04 11:48:50;;;;;;;6.90;6.43;;;7.40;99.90;;;;;;5051138;28;20207;-63
2023/03/04 11:51:23;;;;;;;6.40;6.00;;;7.40;99.90;;;;;;5056572;28;20702;-65
2023/03/04 11:54:12;;;;;;;5.80;5.40;;;7.60;99.90;;;;;;5045978;28;20205;-63
2023/03/04 11:56:44;;;;;;;7.13;6.70;;;7.70;99.90;;;;;;5049209;28;20734;-62
2023/03/04 11:59:40;;;;;;;6.40;6.00;;;7.60;99.90;;;;;;5050754;28;20682;-64
2023/03/04 12:02:19;;;;;;;6.43;6.03;;;7.70;99.90;;;;;;5049579;28;20228;-63
2023/03/04 12:05:19;;;;;;;6.37;5.97;;;7.60;99.90;;;;;;5049219;28;20231;-64
2023/03/04 12:08:12;;;;;;;6.27;5.87;;;7.50;99.90;;;;;;5049782;28;20200;-66
2023/03/04 12:10:46;;;;;;;5.65;5.35;;;7.60;99.90;;;;;;5045734;28;20209;-65
2023/03/04 12:13:35;;;;;;;7.07;6.57;;;7.70;99.90;;;;;;5045497;28;20307;-62
2023/03/04 12:16:16;;;;;;;6.53;6.13;;;7.60;99.90;;;;;;5047667;28;20196;-63
2023/03/04 12:18:58;;;;;;;6.40;6.00;;;7.70;99.90;;;;;;5048474;28;20200;-63
2023/03/04 12:21:47;;;;;;;6.60;6.10;;;7.70;99.90;;;;;;5048683;28;20222;-64
2023/03/04 12:24:28;;;;;;;6.30;5.90;;;7.70;99.90;;;;;;5034964;28;20290;-65
2023/03/04 12:27:00;;;;;;;6.30;5.80;;;7.90;99.90;;;;;;5046015;28;20286;-64
2023/03/04 12:29:36;;;;;;;6.60;6.20;;;7.80;99.90;;;;;;5050060;28;20211;-63
2023/03/04 12:32:10;;;;;;;6.53;6.13;;;7.70;99.90;;;;;;5047762;28;20215;-60
2023/03/04 12:34:52;;;;;;;6.00;5.70;;;7.70;99.90;;;;;;5046662;28;20849;-64
2023/03/04 12:37:39;;;;;;;6.20;5.80;;;7.80;99.90;;;;;;5049239;28;20208;-63
2023/03/04 12:40:32;;;;;;;6.23;5.83;;;7.90;99.90;;;;;;5064381;28;20564;-62
2023/03/04 12:43:08;;;;;;;6.83;6.33;;;8.00;99.90;;;;;;5067758;28;20224;-60
2023/03/04 12:45:44;;;;;;;6.90;6.50;;;8.00;99.90;;;;;;5048419;28;20287;-61
2023/03/04 12:48:25;;;;;;;6.13;5.77;;;7.80;99.90;;;;;;5050805;28;20196;-61
2023/03/04 12:51:01;;;;;;;6.23;5.83;;;7.70;99.90;;;;;;5052378;28;20638;-61
2023/03/04 12:53:34;;;;;;;5.80;5.40;;;7.60;99.90;;;;;;5053461;28;20571;-61
2023/03/04 12:56:05;;;;;;;6.57;6.17;;;7.60;99.90;;;;;;5049357;28;20196;-61
2023/03/04 12:58:33;;;;;;;6.20;5.80;;;7.50;99.90;;;;;;5050340;28;20192;-59
2023/03/04 13:01:11;;;;;;;7.03;6.57;;;7.60;99.90;;;;;;5050183;28;20342;-62
2023/03/04 13:03:44;;;;;;;7.73;7.20;;;7.50;99.90;;;;;;5049460;28;20310;-60
2023/03/04 13:06:22;;;;;;;7.40;6.90;;;7.60;99.90;;;;;;5048777;28;20215;-62
2023/03/04 13:08:58;;;;;;;7.10;6.60;;;7.50;99.90;;;;;;5048485;28;20195;-61